Linn, TX (78563)

10:00 AM CST on February 23, 2018 (GMT -0600)
Edinburg | | Change Station
Active Advisory: Special Weather Statement

Elev 79 ft 26.44 °N, 98.13 °W | Updated 5 minutes ago

Overcast
Overcast
61 °F
Feels Like 61 °F
N
0
Wind Variable Wind from North

Today
High -- | Low -- °F
--% Chance of Precip.
Yesterday
High -- | Low -- °F
Precip. -- in
Pressure 30.13 in
Visibility 0.8 miles
Clouds Overcast 200 ft
Dew Point 60 °F
Humidity 96%
Rainfall 0.00 in
Snow Depth Not available.
7:01 AM 6:30 PM
First Quarter, 54% visible
METAR KEBG 231555Z AUTO 00000KT 3/4SM BR OVC002 16/16 A3013 RMK AO2 T01630156
Pressure 30.13 in
Visibility 0.8 miles
Clouds Overcast 200 ft
Dew Point 60 °F
Humidity 96%
Rainfall 0.00 in
Snow Depth Not available.
7:01 AM 6:30 PM
First Quarter, 54% visible
METAR KEBG 231555Z AUTO 00000KT 3/4SM BR OVC002 16/16 A3013 RMK AO2 T01630156

Get Your Daily Forecast Email!

Thanks for signing up!

Be on the lookout for a verification email in your inbox.

You'll start receiving severe weather alerts in your inbox..

×

10-Day Weather Forecast

Almanac

Astronomy

Feb. 23, 2018 Rise Set
Actual Time
Civil Twilight
Nautical Twilight
Astronomical Twilight
Moon
Length of Visible Light
Length of Day
Tomorrow will be .
, % of the Moon is Illuminated

Today's Extremes

State Highs State Lows

Community

WunderPhotos

Category 6

Welcome to Category 6. This is the collective home for Weather Underground's featured writeups by Dr. Jeff Masters (right), Bob Henson (left), Chris Burt, and other regular contributors.

Nearby

Air Quality

  Air Quality AQ Index Pollutant
Not available.

Snow Depth

Station Depth Elevation

Earthquake Activity

City Distance Mag. Time & Date
Minimum magnitude displayed is 2.5.

Coastal Water Temperatures

Place Temperature

Stations

Nearby Weather Stations

Station Location Temp. Windchill Dew Point Humidity Wind Precip. Elev Updated Type
                   

Watches & Warnings

Special Weather Statement
Issued: 7:33 AM CST Feb. 23, 2018 – National Weather Service

... Locally dense fog across deep south Texas this morning...

Areas of fog... some locally dense... will continue across much of
deep south Texas this morning. Visibilities will be reduced to a
mile or less with isolated areas one-quarter to one-half mile at
times.

Motorists should prepare for sudden visibility reductions over
short distances. Drivers should be sure to use caution, reduce
speed, and use low beam headlights.


Castillo


733 am CST Fri Feb 23 2018

... Locally dense fog across deep south Texas this morning...

Areas of fog... some locally dense... will continue across much of
deep south Texas this morning. Visibilities will be reduced to a
mile or less with isolated areas one-quarter to one-half mile at
times.

Motorists should prepare for sudden visibility reductions over
short distances. Drivers should be sure to use caution, reduce
speed, and use low beam headlights.


Castillo